createdAt,value
2022-11-05T00:00:38.500Z,98392.41
2022-11-05T00:02:01.323Z,98386.25
2022-11-05T00:03:25.134Z,98377.69
2022-11-05T00:04:50.856Z,98384.56
2022-11-05T00:06:13.473Z,98370.53
2022-11-05T00:07:46.249Z,98378.41
2022-11-05T00:09:08.901Z,98380.50
2022-11-05T00:10:21.783Z,98379.81
2022-11-05T00:11:45.613Z,98379.09
2022-11-05T00:13:08.488Z,98387.97
2022-11-05T00:14:31.570Z,98380.66
2022-11-05T00:15:54.159Z,98383.31
2022-11-05T00:16:57.703Z,98380.94
2022-11-05T00:18:01.700Z,98376.44
2022-11-05T00:19:09.119Z,98378.25
2022-11-05T00:20:16.030Z,98381.75
2022-11-05T00:21:38.736Z,98382.63
2022-11-05T00:23:01.101Z,98387.97
2022-11-05T00:24:24.932Z,98385.31
2022-11-05T00:25:30.591Z,98386.25
2022-11-05T00:26:34.520Z,98389.66
2022-11-05T00:27:39.264Z,98389.53
2022-11-05T00:28:44.409Z,98389.66
2022-11-05T00:29:52.156Z,98397.53
2022-11-05T00:31:02.961Z,98394.88
2022-11-05T00:32:07.660Z,98395.13
2022-11-05T00:33:12.427Z,98390.50
2022-11-05T00:34:16.739Z,98389.66
2022-11-05T00:35:23.449Z,98394.16
2022-11-05T00:36:28.992Z,98387.00
2022-11-05T00:37:33.370Z,98389.81
2022-11-05T00:38:41.064Z,98395.81
2022-11-05T00:39:46.229Z,98386.16
2022-11-05T00:41:05.472Z,98388.66
2022-11-05T00:42:29.254Z,98382.66
2022-11-05T00:43:53.650Z,98387.72
2022-11-05T00:45:01.213Z,98386.03
2022-11-05T00:46:05.949Z,98381.00
2022-11-05T00:47:29.572Z,98387.03
2022-11-05T00:48:53.181Z,98376.50
2022-11-05T00:49:57.977Z,98380.16
2022-11-05T00:51:01.879Z,98371.34
2022-11-05T00:52:24.987Z,98370.34
2022-11-05T00:53:30.055Z,98371.19
2022-11-05T00:54:34.115Z,98368.66
2022-11-05T00:55:42.272Z,98366.69
2022-11-05T00:56:46.716Z,98374.84
2022-11-05T00:57:51.547Z,98365.13
2022-11-05T00:58:59.344Z,98374.69
2022-11-05T01:00:04.158Z,98373.00
2022-11-05T01:01:07.835Z,98373.59
2022-11-05T01:02:11.866Z,98376.66
2022-11-05T01:03:19.623Z,98378.47
2022-11-05T01:04:24.147Z,98387.03
2022-11-05T01:05:31.796Z,98387.03
2022-11-05T01:06:36.390Z,98397.53
2022-11-05T01:07:40.823Z,98395.03
2022-11-05T01:08:46.728Z,98401.03
2022-11-05T01:09:50.435Z,98399.22
2022-11-05T01:10:57.994Z,98401.75
2022-11-05T01:12:01.956Z,98399.09
2022-11-05T01:13:11.637Z,98406.09
2022-11-05T01:14:17.461Z,98404.69
2022-11-05T01:15:22.726Z,98395.72
2022-11-05T01:16:26.691Z,98387.03
2022-11-05T01:17:30.924Z,98393.50
2022-11-05T01:18:38.562Z,98395.03
2022-11-05T01:19:42.683Z,98397.53
2022-11-05T01:20:47.314Z,98404.00
2022-11-05T01:21:52.657Z,98410.31
2022-11-05T01:22:59.144Z,98403.44
2022-11-05T01:24:04.703Z,98411.31
2022-11-05T01:25:10.958Z,98412.16
2022-11-05T01:26:15.250Z,98402.34
2022-11-05T01:27:19.472Z,98412.69
2022-11-05T01:28:23.433Z,98405.69
2022-11-05T01:29:27.788Z,98405.69
2022-11-05T01:30:32.491Z,98412.53
2022-11-05T01:31:36.849Z,98417.50
2022-11-05T01:32:47.143Z,98414.66
2022-11-05T01:33:51.534Z,98416.50
2022-11-05T01:34:56.634Z,98427.00
2022-11-05T01:36:00.840Z,98414.66
2022-11-05T01:37:05.378Z,98403.16
2022-11-05T01:38:10.341Z,98403.31
2022-11-05T01:39:14.703Z,98405.84
2022-11-05T01:40:23.326Z,98412.56
2022-11-05T01:41:27.394Z,98420.41
2022-11-05T01:42:33.708Z,98417.75
2022-11-05T01:43:50.207Z,98415.94
2022-11-05T01:45:15.068Z,98416.75
2022-11-05T01:46:27.596Z,98418.59
2022-11-05T01:47:50.684Z,98420.41
2022-11-05T01:49:02.953Z,98430.25
2022-11-05T01:50:35.003Z,98430.94
2022-11-05T01:51:42.576Z,98426.44
2022-11-05T01:52:49.616Z,98423.25
2022-11-05T01:54:10.010Z,98428.56
2022-11-05T01:55:19.093Z,98428.41
2022-11-05T01:56:40.566Z,98432.63
2022-11-05T01:57:47.028Z,98441.47
2022-11-05T01:58:59.036Z,98442.31
2022-11-05T02:00:04.354Z,98438.25
2022-11-05T02:01:09.105Z,98446.66
2022-11-05T02:02:13.751Z,98441.47
2022-11-05T02:03:20.075Z,98442.16
2022-11-05T02:04:52.046Z,98441.19
2022-11-05T02:05:59.421Z,98439.06
2022-11-05T02:07:06.136Z,98439.91
2022-11-05T02:08:27.315Z,98448.63
2022-11-05T02:09:58.641Z,98446.94
2022-11-05T02:11:03.068Z,98443.56
2022-11-05T02:12:10.249Z,98447.22
2022-11-05T02:13:14.531Z,98448.34
2022-11-05T02:14:18.979Z,98451.56
2022-11-05T02:15:51.868Z,98462.91
2022-11-05T02:17:40.619Z,98464.75
2022-11-05T02:19:13.381Z,98463.50
2022-11-05T02:20:37.118Z,98461.25
2022-11-05T02:21:57.010Z,98462.06
2022-11-05T02:23:20.466Z,98465.47
2022-11-05T02:24:46.953Z,98463.50
2022-11-05T02:26:35.220Z,98467.97
2022-11-05T02:28:02.174Z,98473.31
2022-11-05T02:29:53.610Z,98468.97
2022-11-05T02:31:44.272Z,98471.63
2022-11-05T02:33:08.351Z,98469.66
2022-11-05T02:34:48.022Z,98479.47
2022-11-05T02:36:00.727Z,98470.22
2022-11-05T02:37:40.826Z,98471.78
2022-11-05T02:39:34.512Z,98480.84
2022-11-05T02:41:03.182Z,98479.72
2022-11-05T02:42:40.376Z,98489.69
2022-11-05T02:43:57.776Z,98486.44
2022-11-05T02:45:58.992Z,98489.41
2022-11-05T02:47:26.363Z,98498.63
2022-11-05T02:48:50.629Z,98504.69
2022-11-05T02:50:20.329Z,98504.81
2022-11-05T02:51:46.925Z,98499.03
2022-11-05T02:53:19.937Z,98506.34
2022-11-05T02:54:42.624Z,98514.47
2022-11-05T02:56:00.430Z,98524.28
2022-11-05T02:57:05.526Z,98522.28
2022-11-05T02:58:10.277Z,98532.94
2022-11-05T02:59:15.017Z,98537.56
2022-11-05T03:01:06.785Z,98527.03
2022-11-05T03:02:10.756Z,98534.91
2022-11-05T03:03:37.781Z,98536.59
2022-11-05T03:04:42.146Z,98536.44
2022-11-05T03:06:10.227Z,98544.69
2022-11-05T03:07:43.714Z,98541.03
2022-11-05T03:09:06.662Z,98542.44
2022-11-05T03:10:39.123Z,98553.09
2022-11-05T03:12:41.249Z,98559.72
2022-11-05T03:14:19.550Z,98558.13
2022-11-05T03:15:35.684Z,98563.22
2022-11-05T03:17:14.036Z,98568.25
2022-11-05T03:18:49.032Z,98564.59
2022-11-05T03:20:18.783Z,98571.75
2022-11-05T03:21:44.220Z,98577.63
2022-11-05T03:23:05.783Z,98570.47
2022-11-05T03:24:29.099Z,98570.88
2022-11-05T03:25:46.528Z,98578.28
2022-11-05T03:27:02.827Z,98579.13
2022-11-05T03:28:11.057Z,98574.63
2022-11-05T03:29:25.033Z,98589.75
2022-11-05T03:30:31.591Z,98581.91
2022-11-05T03:31:40.855Z,98587.34
2022-11-05T03:33:02.425Z,98583.84
2022-11-05T03:34:11.689Z,98579.22
2022-11-05T03:35:34.498Z,98581.22
2022-11-05T03:36:46.982Z,98579.00
2022-11-05T03:37:58.401Z,98584.03
2022-11-05T03:39:08.044Z,98580.25
2022-11-05T03:40:17.454Z,98595.94
2022-11-05T03:41:24.806Z,98589.53
2022-11-05T03:42:37.211Z,98593.41
2022-11-05T03:43:49.638Z,98594.41
2022-11-05T03:45:01.951Z,98600.69
2022-11-05T03:46:49.625Z,98607.44
2022-11-05T03:47:59.269Z,98603.09
2022-11-05T03:49:19.660Z,98605.50
2022-11-05T03:50:42.790Z,98609.97
2022-11-05T03:52:20.202Z,98613.88
2022-11-05T03:53:31.053Z,98607.69
2022-11-05T03:54:36.539Z,98609.25
2022-11-05T03:56:28.859Z,98611.53
2022-11-05T03:57:38.961Z,98611.34
2022-11-05T03:58:47.636Z,98614.84
2022-11-05T03:59:52.622Z,98610.66
2022-11-05T04:01:01.317Z,98614.25
2022-11-05T04:02:05.619Z,98619.84
2022-11-05T04:03:10.618Z,98615.66
2022-11-05T04:04:15.081Z,98623.03
2022-11-05T04:05:19.885Z,98613.13
2022-11-05T04:06:43.527Z,98621.03
2022-11-05T04:08:11.379Z,98624.03
2022-11-05T04:09:37.271Z,98619.28
2022-11-05T04:10:59.907Z,98619.84
2022-11-05T04:12:22.659Z,98625.88
2022-11-05T04:13:26.591Z,98631.03
2022-11-05T04:14:31.742Z,98628.22
2022-11-05T04:15:55.449Z,98630.13
2022-11-05T04:17:11.622Z,98630.59
2022-11-05T04:18:15.210Z,98634.09
2022-11-05T04:19:38.846Z,98629.47
2022-11-05T04:21:01.285Z,98626.34
2022-11-05T04:22:23.825Z,98622.63
2022-11-05T04:23:46.973Z,98622.72
2022-11-05T04:24:50.781Z,98629.72
2022-11-05T04:25:55.158Z,98632.28
2022-11-05T04:26:59.963Z,98622.84
2022-11-05T04:28:04.971Z,98631.44
2022-11-05T04:29:28.107Z,98625.28
2022-11-05T04:30:33.707Z,98633.25
2022-11-05T04:31:39.490Z,98628.69
2022-11-05T04:33:13.098Z,98638.13
2022-11-05T04:34:19.089Z,98635.31
2022-11-05T04:35:23.771Z,98634.69
2022-11-05T04:36:28.419Z,98631.44
2022-11-05T04:37:32.284Z,98639.75
2022-11-05T04:38:36.132Z,98637.66
2022-11-05T04:39:40.063Z,98629.44
2022-11-05T04:40:48.431Z,98632.66
2022-11-05T04:42:04.881Z,98635.91
2022-11-05T04:43:17.602Z,98639.28
2022-11-05T04:44:28.435Z,98639.00
2022-11-05T04:45:44.152Z,98636.22
2022-11-05T04:46:48.140Z,98631.75
2022-11-05T04:47:53.876Z,98634.28
2022-11-05T04:48:58.454Z,98628.97
2022-11-05T04:50:13.844Z,98645.44
2022-11-05T04:51:17.618Z,98636.34
2022-11-05T04:52:22.817Z,98636.03
2022-11-05T04:53:27.092Z,98636.03
2022-11-05T04:54:33.045Z,98637.84
2022-11-05T04:55:37.475Z,98640.06
2022-11-05T04:56:41.537Z,98646.09
2022-11-05T04:57:52.857Z,98645.81
2022-11-05T04:58:57.788Z,98647.31
2022-11-05T05:00:02.460Z,98653.75
2022-11-05T05:01:17.254Z,98648.69
2022-11-05T05:02:22.206Z,98658.94
2022-11-05T05:03:28.518Z,98654.47
2022-11-05T05:04:35.577Z,98656.78
2022-11-05T05:05:41.841Z,98658.06
2022-11-05T05:06:46.089Z,98659.31
2022-11-05T05:07:50.359Z,98664.41
2022-11-05T05:08:58.173Z,98667.19
2022-11-05T05:10:04.283Z,98671.78
2022-11-05T05:11:12.400Z,98668.41
2022-11-05T05:12:17.386Z,98669.41
2022-11-05T05:13:24.459Z,98671.91
2022-11-05T05:14:28.885Z,98670.56
2022-11-05T05:15:34.272Z,98680.69
2022-11-05T05:16:38.579Z,98684.06
2022-11-05T05:17:42.411Z,98676.91
2022-11-05T05:18:47.001Z,98680.28
2022-11-05T05:20:09.577Z,98678.16
2022-11-05T05:21:32.570Z,98680.38
2022-11-05T05:22:37.292Z,98691.56
2022-11-05T05:23:43.516Z,98685.03
2022-11-05T05:24:52.527Z,98691.56
2022-11-05T05:26:00.842Z,98688.22
2022-11-05T05:27:04.915Z,98683.03
2022-11-05T05:28:08.768Z,98686.53
2022-11-05T05:29:13.593Z,98684.56
2022-11-05T05:30:17.962Z,98689.19
2022-11-05T05:31:24.091Z,98697.47
2022-11-05T05:32:27.959Z,98689.50
2022-11-05T05:33:32.365Z,98706.69
2022-11-05T05:34:36.625Z,98694.56
2022-11-05T05:35:41.519Z,98702.53
2022-11-05T05:36:47.047Z,98701.31
2022-11-05T05:37:56.912Z,98696.84
2022-11-05T05:39:00.744Z,98695.16
2022-11-05T05:40:05.703Z,98696.50
2022-11-05T05:41:10.906Z,98701.13
2022-11-05T05:42:16.332Z,98691.88
2022-11-05T05:43:21.496Z,98701.31
2022-11-05T05:44:25.552Z,98704.13
2022-11-05T05:45:36.354Z,98695.81
2022-11-05T05:46:40.640Z,98694.25
2022-11-05T05:47:46.252Z,98695.53
2022-11-05T05:48:53.284Z,98699.78
2022-11-05T05:50:02.118Z,98700.28
2022-11-05T05:51:11.602Z,98706.56
2022-11-05T05:52:20.407Z,98695.34
2022-11-05T05:53:25.024Z,98709.75
2022-11-05T05:54:32.910Z,98714.84
2022-11-05T05:55:38.618Z,98713.66
2022-11-05T05:56:46.673Z,98718.59
2022-11-05T05:57:51.282Z,98721.38
2022-11-05T05:58:55.152Z,98728.25
2022-11-05T06:00:02.273Z,98729.13
2022-11-05T06:01:18.632Z,98740.84
2022-11-05T06:02:24.794Z,98731.66
2022-11-05T06:03:29.100Z,98737.69
2022-11-05T06:04:33.216Z,98741.81
2022-11-05T06:05:37.308Z,98740.13
2022-11-05T06:06:41.459Z,98735.03
2022-11-05T06:07:46.442Z,98745.44
2022-11-05T06:08:51.476Z,98749.66
2022-11-05T06:09:55.455Z,98742.53
2022-11-05T06:11:01.115Z,98746.75
2022-11-05T06:12:05.541Z,98751.25
2022-11-05T06:13:09.719Z,98745.31
2022-11-05T06:14:14.087Z,98755.59
2022-11-05T06:15:18.170Z,98755.56
2022-11-05T06:16:21.945Z,98755.94
2022-11-05T06:17:25.871Z,98752.19
2022-11-05T06:18:31.790Z,98758.97
2022-11-05T06:19:35.908Z,98761.53
2022-11-05T06:20:40.650Z,98767.19
2022-11-05T06:21:44.978Z,98760.44
2022-11-05T06:22:59.876Z,98758.88
2022-11-05T06:24:04.787Z,98763.34
2022-11-05T06:25:11.575Z,98767.19
2022-11-05T06:26:19.501Z,98769.72
2022-11-05T06:27:23.286Z,98772.25
2022-11-05T06:28:27.770Z,98766.66
2022-11-05T06:29:33.265Z,98779.88
2022-11-05T06:30:37.437Z,98777.31
2022-11-05T06:31:41.503Z,98777.44
2022-11-05T06:32:48.457Z,98786.66
2022-11-05T06:33:55.990Z,98787.72
2022-11-05T06:35:00.640Z,98787.00
2022-11-05T06:36:07.298Z,98794.63
2022-11-05T06:37:16.436Z,98793.78
2022-11-05T06:38:21.682Z,98798.50
2022-11-05T06:39:27.531Z,98794.72
2022-11-05T06:40:31.442Z,98801.75
2022-11-05T06:41:56.851Z,98802.00
2022-11-05T06:43:00.224Z,98804.91
2022-11-05T06:44:07.434Z,98797.13
2022-11-05T06:45:12.561Z,98797.28
2022-11-05T06:46:20.430Z,98800.78
2022-11-05T06:47:24.686Z,98799.59
2022-11-05T06:48:29.202Z,98801.25
2022-11-05T06:49:33.314Z,98808.75
2022-11-05T06:50:37.381Z,98809.41
2022-11-05T06:51:41.411Z,98805.75
2022-11-05T06:52:45.349Z,98808.03
2022-11-05T06:53:49.040Z,98804.78
2022-11-05T06:54:53.099Z,98810.81
2022-11-05T06:55:56.881Z,98801.28
2022-11-05T06:57:00.701Z,98811.66
2022-11-05T06:58:06.071Z,98815.16
2022-11-05T06:59:10.098Z,98809.00
2022-11-05T07:00:15.148Z,98811.44
2022-11-05T07:01:20.480Z,98813.00
2022-11-05T07:02:25.303Z,98818.56
2022-11-05T07:03:31.114Z,98816.97
2022-11-05T07:04:36.579Z,98829.56
2022-11-05T07:05:50.701Z,98828.84
2022-11-05T07:06:55.859Z,98824.00
2022-11-05T07:08:01.718Z,98830.03
2022-11-05T07:09:06.251Z,98836.81
2022-11-05T07:10:16.165Z,98829.56
2022-11-05T07:11:20.523Z,98839.69
2022-11-05T07:12:25.674Z,98832.69
2022-11-05T07:13:30.645Z,98833.16
2022-11-05T07:14:34.603Z,98834.63
2022-11-05T07:15:40.020Z,98841.41
2022-11-05T07:16:44.587Z,98841.03
2022-11-05T07:18:00.645Z,98848.31
2022-11-05T07:19:05.379Z,98849.28
2022-11-05T07:20:12.056Z,98850.56
2022-11-05T07:21:16.724Z,98842.59
2022-11-05T07:22:21.952Z,98848.03
2022-11-05T07:23:25.777Z,98850.84
2022-11-05T07:24:30.405Z,98851.94
2022-11-05T07:25:36.891Z,98850.97
2022-11-05T07:26:41.576Z,98851.28
2022-11-05T07:27:45.275Z,98853.94
2022-11-05T07:28:49.542Z,98857.34
2022-11-05T07:29:53.683Z,98857.97
2022-11-05T07:30:59.869Z,98852.63
2022-11-05T07:32:09.497Z,98856.88
2022-11-05T07:33:15.564Z,98859.41
2022-11-05T07:34:20.495Z,98859.53
2022-11-05T07:35:25.582Z,98867.97
2022-11-05T07:36:29.800Z,98867.63
2022-11-05T07:37:44.237Z,98866.31
2022-11-05T07:38:52.261Z,98864.84
2022-11-05T07:39:58.566Z,98866.53
2022-11-05T07:41:02.736Z,98872.34
2022-11-05T07:42:07.477Z,98869.09
2022-11-05T07:43:11.661Z,98863.28
2022-11-05T07:44:17.744Z,98865.69
2022-11-05T07:45:22.117Z,98872.59
2022-11-05T07:46:26.419Z,98860.38
2022-11-05T07:47:30.224Z,98867.97
2022-11-05T07:48:34.831Z,98868.84
2022-11-05T07:49:39.498Z,98875.00
2022-11-05T07:50:43.509Z,98870.50
2022-11-05T07:51:48.238Z,98868.56
2022-11-05T07:54:26.889Z,98872.38
2022-11-05T07:55:31.452Z,98868.34
2022-11-05T07:56:35.231Z,98873.53
2022-11-05T07:57:48.117Z,98872.81
2022-11-05T07:58:52.389Z,98868.47
2022-11-05T07:59:56.888Z,98866.66
2022-11-05T08:01:01.150Z,98875.22
2022-11-05T08:02:09.566Z,98872.38
2022-11-05T08:03:18.366Z,98873.31
2022-11-05T08:04:23.326Z,98874.75
2022-11-05T08:05:29.982Z,98871.72
2022-11-05T08:06:34.821Z,98874.25
2022-11-05T08:07:39.252Z,98863.75
2022-11-05T08:08:43.612Z,98875.03
2022-11-05T08:09:47.651Z,98869.59
2022-11-05T08:10:51.920Z,98877.16
2022-11-05T08:12:02.700Z,98875.63
2022-11-05T08:13:09.036Z,98877.16
2022-11-05T08:14:13.521Z,98877.03
2022-11-05T08:15:18.879Z,98877.56
2022-11-05T08:16:26.709Z,98874.25
2022-11-05T08:17:30.874Z,98875.97
2022-11-05T08:18:37.203Z,98877.69
2022-11-05T08:19:40.939Z,98879.69
2022-11-05T08:20:47.497Z,98874.50
2022-11-05T08:21:51.475Z,98884.66
2022-11-05T08:22:57.073Z,98888.41
2022-11-05T08:24:03.231Z,98881.41
2022-11-05T08:25:08.719Z,98887.91
2022-11-05T08:26:14.202Z,98888.53
2022-11-05T08:27:18.328Z,98880.66
2022-11-05T08:28:27.414Z,98883.69
2022-11-05T08:29:31.743Z,98893.09
2022-11-05T08:30:36.659Z,98891.41
2022-11-05T08:31:40.794Z,98898.19
2022-11-05T08:32:46.398Z,98895.28
2022-11-05T08:33:50.989Z,98894.31
2022-11-05T08:34:55.088Z,98892.88
2022-11-05T08:36:04.899Z,98897.34
2022-11-05T08:37:09.049Z,98893.09
2022-11-05T08:38:19.793Z,98892.88
2022-11-05T08:39:23.538Z,98893.72
2022-11-05T08:40:29.319Z,98898.19
2022-11-05T08:41:33.095Z,98898.69
2022-11-05T08:42:37.617Z,98901.84
2022-11-05T08:43:41.590Z,98896.16
2022-11-05T08:44:45.718Z,98901.81
2022-11-05T08:45:51.688Z,98906.91
2022-11-05T08:47:06.016Z,98905.31
2022-11-05T08:48:15.900Z,98906.16
2022-11-05T08:49:20.869Z,98914.00
2022-11-05T08:50:26.743Z,98913.16
2022-11-05T08:51:32.163Z,98916.44
2022-11-05T08:52:40.867Z,98912.47
2022-11-05T08:53:46.840Z,98914.16
2022-11-05T08:54:51.550Z,98913.66
2022-11-05T08:55:59.298Z,98911.63
2022-11-05T08:57:04.149Z,98909.06
2022-11-05T08:58:18.108Z,98916.69
2022-11-05T08:59:23.014Z,98922.63
2022-11-05T09:00:29.752Z,98920.19
2022-11-05T09:01:35.559Z,98921.16
2022-11-05T09:02:39.928Z,98921.75
2022-11-05T09:03:44.341Z,98921.66
2022-11-05T09:04:49.038Z,98919.09
2022-11-05T09:05:55.675Z,98919.84
2022-11-05T09:07:02.012Z,98914.88
2022-11-05T09:08:16.036Z,98918.00
2022-11-05T09:09:20.494Z,98935.91
2022-11-05T09:10:25.158Z,98931.06
2022-11-05T09:11:43.285Z,98921.16
2022-11-05T09:12:53.325Z,98919.22
2022-11-05T09:14:01.453Z,98929.97
2022-11-05T09:15:06.389Z,98931.91
2022-11-05T09:16:25.368Z,98930.94
2022-11-05T09:17:29.698Z,98929.63
2022-11-05T09:18:34.581Z,98933.72
2022-11-05T09:19:40.053Z,98932.88
2022-11-05T09:20:46.833Z,98938.56
2022-11-05T09:21:52.236Z,98933.34
2022-11-05T09:22:59.931Z,98936.63
2022-11-05T09:24:05.662Z,98938.31
2022-11-05T09:25:10.293Z,98940.84
2022-11-05T09:26:18.476Z,98935.03
2022-11-05T09:27:24.326Z,98942.16
2022-11-05T09:28:30.493Z,98945.44
2022-11-05T09:29:34.210Z,98938.31
2022-11-05T09:30:53.148Z,98951.34
2022-11-05T09:32:02.846Z,98944.13
2022-11-05T09:33:07.898Z,98957.03
2022-11-05T09:34:11.877Z,98960.78
2022-11-05T09:36:44.514Z,98960.06
2022-11-05T09:37:49.479Z,98958.59
2022-11-05T09:38:54.442Z,98957.63
2022-11-05T09:39:59.016Z,98961.50
2022-11-05T09:41:13.456Z,98962.59
2022-11-05T09:42:23.311Z,98960.78
2022-11-05T09:43:45.017Z,98966.47
2022-11-05T09:44:59.868Z,98959.34
2022-11-05T09:46:34.388Z,98962.22
2022-11-05T09:47:56.742Z,98966.34
2022-11-05T09:49:10.900Z,98961.03
2022-11-05T09:50:32.443Z,98962.59
2022-11-05T09:51:38.536Z,98962.50
2022-11-05T09:52:42.535Z,98963.22
2022-11-05T09:53:47.832Z,98961.63
2022-11-05T09:54:56.090Z,98960.78
2022-11-05T09:56:01.674Z,98961.53
2022-11-05T09:57:12.821Z,98961.75
2022-11-05T09:58:46.976Z,98969.00
2022-11-05T10:00:04.603Z,98957.53
2022-11-05T10:01:23.400Z,98961.88
2022-11-05T10:02:48.357Z,98967.19
2022-11-05T10:04:00.901Z,98965.16
2022-11-05T10:05:11.973Z,98970.09
2022-11-05T10:06:23.447Z,98975.53
2022-11-05T10:07:31.399Z,98975.41
2022-11-05T10:08:47.916Z,98968.28
2022-11-05T10:10:05.038Z,98973.47
2022-11-05T10:11:29.870Z,98975.53
2022-11-05T10:12:43.760Z,98975.28
2022-11-05T10:14:03.413Z,98976.06
2022-11-05T10:15:14.003Z,98980.78
2022-11-05T10:16:27.030Z,98980.41
2022-11-05T10:17:38.985Z,98980.16
2022-11-05T10:18:54.728Z,98985.75
2022-11-05T10:20:23.987Z,98981.97
2022-11-05T10:21:59.443Z,98979.56
2022-11-05T10:23:10.382Z,98975.81
2022-11-05T10:24:21.979Z,98981.44
2022-11-05T10:25:40.446Z,98979.56
2022-11-05T10:26:53.656Z,98976.13
2022-11-05T10:28:00.818Z,98978.91
2022-11-05T10:29:05.215Z,98984.78
2022-11-05T10:30:15.709Z,98986.47
2022-11-05T10:31:24.888Z,98973.59
2022-11-05T10:32:38.213Z,98986.47
2022-11-05T10:34:01.201Z,98985.47
2022-11-05T10:35:12.329Z,98978.47
2022-11-05T10:36:29.864Z,98985.69
2022-11-05T10:37:40.657Z,98986.66
2022-11-05T10:38:45.728Z,98984.00
2022-11-05T10:39:49.899Z,98986.06
2022-11-05T10:41:21.414Z,98993.28
2022-11-05T10:42:33.848Z,98991.97
2022-11-05T10:43:50.005Z,98996.09
2022-11-05T10:45:43.332Z,99001.88
2022-11-05T10:47:08.410Z,99002.84
2022-11-05T10:48:49.611Z,99004.06
2022-11-05T10:50:05.194Z,99005.75
2022-11-05T10:51:11.386Z,99008.03
2022-11-05T10:52:25.318Z,99015.00
2022-11-05T10:53:38.733Z,99002.13
2022-11-05T10:54:44.163Z,99010.84
2022-11-05T10:55:54.178Z,99009.81
2022-11-05T10:56:58.377Z,99012.94
2022-11-05T10:58:21.242Z,99006.16
2022-11-05T10:59:30.317Z,99009.16
2022-11-05T11:00:36.842Z,99004.28
2022-11-05T11:01:44.432Z,99004.28
2022-11-05T11:03:00.734Z,99005.97
2022-11-05T11:04:34.901Z,99015.44
2022-11-05T11:05:43.736Z,99015.31
2022-11-05T11:06:53.250Z,99001.72
2022-11-05T11:08:12.805Z,99011.19
2022-11-05T11:09:31.966Z,99010.56
2022-11-05T11:11:02.983Z,99014.94
2022-11-05T11:12:24.618Z,99012.88
2022-11-05T11:14:14.442Z,99018.56
2022-11-05T11:15:21.519Z,99019.06
2022-11-05T11:16:32.950Z,99017.13
2022-11-05T11:17:37.679Z,99019.78
2022-11-05T11:18:44.382Z,99015.97
2022-11-05T11:19:50.694Z,99023.16
2022-11-05T11:21:06.318Z,99017.66
2022-11-05T11:22:16.998Z,99017.66
2022-11-05T11:23:21.710Z,99020.31
2022-11-05T11:24:33.282Z,99021.88
2022-11-05T11:26:02.108Z,99027.19
2022-11-05T11:27:13.738Z,99019.94
2022-11-05T11:28:33.011Z,99024.41
2022-11-05T11:29:42.908Z,99024.66
2022-11-05T11:31:16.382Z,99024.72
2022-11-05T11:32:25.376Z,99018.09
2022-11-05T11:33:31.304Z,99022.91
2022-11-05T11:34:40.823Z,99029.56
2022-11-05T11:35:47.176Z,99025.75
2022-11-05T11:37:08.909Z,99026.78
2022-11-05T11:38:24.786Z,99022.69
2022-11-05T11:39:31.558Z,99022.06
2022-11-05T11:40:38.602Z,99021.94
2022-11-05T11:41:45.194Z,99021.47
2022-11-05T11:42:57.957Z,99023.09
2022-11-05T11:44:15.307Z,99015.97
2022-11-05T11:45:28.808Z,99027.75
2022-11-05T11:46:35.877Z,99024.25
2022-11-05T11:47:47.578Z,99036.44
2022-11-05T11:48:52.565Z,99031.66
2022-11-05T11:50:00.457Z,99035.03
2022-11-05T11:51:49.822Z,99030.41
2022-11-05T11:52:54.868Z,99037.03
2022-11-05T11:54:01.871Z,99036.69
2022-11-05T11:55:22.047Z,99034.28
2022-11-05T11:56:27.701Z,99031.72
2022-11-05T11:57:42.521Z,99038.00
2022-11-05T11:58:53.911Z,99038.72
2022-11-05T12:00:08.882Z,99042.16
2022-11-05T12:01:44.235Z,99042.75
2022-11-05T12:03:23.289Z,99043.72
2022-11-05T12:05:03.918Z,99035.22
2022-11-05T12:06:37.107Z,99039.56
2022-11-05T12:08:16.811Z,99048.28
2022-11-05T12:09:57.714Z,99049.22
2022-11-05T12:11:12.785Z,99049.47
2022-11-05T12:12:29.052Z,99051.38
2022-11-05T12:14:19.197Z,99046.06
2022-11-05T12:15:53.208Z,99052.16
2022-11-05T12:17:18.920Z,99052.41
2022-11-05T12:18:53.392Z,99054.94
2022-11-05T12:20:31.187Z,99053.63
2022-11-05T12:22:17.416Z,99047.88
2022-11-05T12:23:36.318Z,99045.09
2022-11-05T12:25:30.147Z,99049.28
2022-11-05T12:27:04.233Z,99053.38
2022-11-05T12:28:18.673Z,99059.34
2022-11-05T12:29:45.705Z,99060.91
2022-11-05T12:31:23.911Z,99064.28
2022-11-05T12:33:27.552Z,99063.25
2022-11-05T12:35:00.970Z,99064.81
2022-11-05T12:36:38.837Z,99072.28
2022-11-05T12:38:15.365Z,99070.13
2022-11-05T12:39:50.890Z,99069.88
2022-11-05T12:41:14.869Z,99068.69
2022-11-05T12:42:39.414Z,99070.13
2022-11-05T12:44:20.465Z,99069.78
2022-11-05T12:45:52.787Z,99070.38
2022-11-05T12:47:07.073Z,99069.16
2022-11-05T12:48:37.206Z,99072.06
2022-11-05T12:50:23.380Z,99072.06
2022-11-05T12:51:44.066Z,99070.88
2022-11-05T12:53:29.268Z,99065.91
2022-11-05T12:54:59.393Z,99069.66
2022-11-05T12:56:17.504Z,99068.44
2022-11-05T12:57:24.008Z,99069.19
2022-11-05T12:58:41.531Z,99066.53
2022-11-05T13:01:20.780Z,99069.19
2022-11-05T13:02:46.020Z,99075.94
2022-11-05T13:04:09.214Z,99074.75
2022-11-05T13:05:37.121Z,99086.09
2022-11-05T13:06:48.033Z,99075.47
2022-11-05T13:08:24.206Z,99082.09
2022-11-05T13:09:47.750Z,99080.28
2022-11-05T13:11:16.113Z,99087.69
2022-11-05T13:12:26.166Z,99078.13
2022-11-05T13:13:58.984Z,99084.03
2022-11-05T13:15:29.496Z,99079.94
2022-11-05T13:16:42.062Z,99083.19
2022-11-05T13:18:15.838Z,99087.44
2022-11-05T13:20:04.263Z,99086.44
2022-11-05T13:21:12.772Z,99088.28
2022-11-05T13:22:46.922Z,99091.56
2022-11-05T13:24:18.099Z,99088.78
2022-11-05T13:25:28.775Z,99086.94
2022-11-05T13:27:03.789Z,99093.97
2022-11-05T13:28:20.994Z,99094.09
2022-11-05T13:29:44.445Z,99094.22
2022-11-05T13:31:01.869Z,99100.03
2022-11-05T13:32:42.146Z,99098.44
2022-11-05T13:33:51.649Z,99102.91
2022-11-05T13:35:03.525Z,99100.50
2022-11-05T13:36:49.343Z,99098.19
2022-11-05T13:38:24.126Z,99106.03
2022-11-05T13:39:38.473Z,99103.28
2022-11-05T13:41:27.684Z,99104.00
2022-11-05T13:43:15.120Z,99112.22
2022-11-05T13:44:46.251Z,99105.94
2022-11-05T13:46:19.493Z,99121.16
2022-11-05T13:48:17.202Z,99119.84
2022-11-05T13:49:48.674Z,99117.06
2022-11-05T13:51:22.623Z,99112.59
2022-11-05T13:53:03.290Z,99114.53
2022-11-05T13:54:41.614Z,99115.38
2022-11-05T13:56:16.379Z,99109.44
2022-11-05T13:57:29.165Z,99111.97
2022-11-05T13:58:57.521Z,99121.41
2022-11-05T14:00:24.604Z,99124.78
2022-11-05T14:02:00.865Z,99120.44
2022-11-05T14:03:18.205Z,99134.00
2022-11-05T14:04:41.502Z,99128.69
2022-11-05T14:06:02.814Z,99137.25
2022-11-05T14:07:22.727Z,99126.50
2022-11-05T14:08:30.391Z,99131.09
2022-11-05T14:09:38.191Z,99130.84
2022-11-05T14:11:03.014Z,99139.56
2022-11-05T14:12:20.998Z,99133.50
2022-11-05T14:13:31.819Z,99136.16
2022-11-05T14:14:58.431Z,99132.66
2022-11-05T14:16:23.677Z,99137.00
2022-11-05T14:18:05.873Z,99145.88
2022-11-05T14:19:19.143Z,99149.94
2022-11-05T14:20:32.623Z,99153.47
2022-11-05T14:21:57.160Z,99155.88
2022-11-05T14:23:28.518Z,99165.66
2022-11-05T14:24:43.384Z,99167.59
2022-11-05T14:26:11.381Z,99169.19
2022-11-05T14:27:16.087Z,99169.41
2022-11-05T14:28:35.377Z,99171.97
2022-11-05T14:29:51.744Z,99171.84